This is the latest recevied weather packets stored in our database for station/object Aulendorf. If no packets are shown the sender has not sent any weather packets the latest 10 day(s).
| Time | Temp. | Humidity | Pressure | Rain* | Wind** | Luminosity | Snow |
|---|---|---|---|---|---|---|---|
| 1777768329 | 10° C | 75% | 1014.8 hPa | 0 mm | - | - | - |
| 1777766530 | 10.56° C | 74% | 1014.9 hPa | 0 mm | - | - | - |
| 1777764730 | 10.56° C | 73% | 1015 hPa | 0 mm | - | - | - |
| 1777762930 | 11.11° C | 72% | 1015.1 hPa | 0 mm | - | - | - |
| 1777761131 | 11.67° C | 69% | 1015 hPa | 0 mm | - | - | - |
| 1777759330 | 12.78° C | 69% | 1015.1 hPa | 0 mm | - | - | - |
| 1777757530 | 13.33° C | 67% | 1015.1 hPa | 0 mm | - | - | - |
| 1777755729 | 13.89° C | 62% | 1015.2 hPa | 0 mm | - | - | - |
| 1777753930 | 15° C | 61% | 1015.4 hPa | 0 mm | - | - | - |
| 1777752130 | 16.67° C | 54% | 1015.5 hPa | 0 mm | - | - | - |
| 1777750335 | 17.78° C | 50% | 1015.5 hPa | 0 mm | - | - | - |
| 1777748537 | 18.89° C | 47% | 1015.3 hPa | 0 mm | - | - | - |
| 1777746730 | 21.11° C | 39% | 1015.2 hPa | 0 mm | - | - | - |
| 1777744931 | 22.22° C | 35% | 1015.2 hPa | 0 mm | - | - | - |
| 1777743130 | 22.78° C | 34% | 1015.3 hPa | 0 mm | - | - | - |
| 1777741330 | 23.89° C | 32% | 1015.4 hPa | 0 mm | - | - | - |
| 1777739530 | 25° C | 30% | 1015.6 hPa | 0 mm | - | - | - |
| 1777737733 | 23.89° C | 33% | 1016 hPa | 0 mm | - | - | - |
| 1777735930 | 24.44° C | 33% | 1016.3 hPa | 0 mm | - | - | - |
| 1777734130 | 24.44° C | 32% | 1016.7 hPa | 0 mm | - | - | - |
| 1777732330 | 23.89° C | 34% | 1017.2 hPa | 0 mm | - | - | - |
| 1777730530 | 23.89° C | 35% | 1017.5 hPa | 0 mm | - | - | - |
| 1777728731 | 23.89° C | 34% | 1017.9 hPa | 0 mm | - | - | - |
| 1777726930 | 23.89° C | 36% | 1018.2 hPa | 0 mm | - | - | - |
| 1777725131 | 23.33° C | 36% | 1018.6 hPa | 0 mm | - | - | - |
* Rain since midnight (hover to see other rain measurements)
** Current wind speed in m/s (hover to see current wind gust speed)